createdAt,value
2019-01-03T00:00:27.069Z,6.10
2019-01-03T00:03:26.548Z,5.97
2019-01-03T00:06:22.996Z,5.65
2019-01-03T00:09:23.061Z,5.57
2019-01-03T00:12:28.441Z,5.75
2019-01-03T00:15:28.161Z,5.23
2019-01-03T00:18:27.671Z,5.40
2019-01-03T00:21:27.406Z,6.00
2019-01-03T00:24:27.907Z,5.87
2019-01-03T00:27:22.421Z,5.65
2019-01-03T00:30:23.206Z,5.65
2019-01-03T00:33:29.203Z,5.45
2019-01-03T00:36:29.250Z,5.45
2019-01-03T00:39:29.225Z,5.62
2019-01-03T00:42:17.230Z,5.08
2019-01-03T00:45:17.279Z,5.30
2019-01-03T00:48:08.597Z,5.17
2019-01-03T00:51:08.296Z,5.60
2019-01-03T00:54:08.160Z,5.67
2019-01-03T00:57:08.544Z,6.10
2019-01-03T01:00:14.391Z,5.53
2019-01-03T01:03:13.895Z,5.40
2019-01-03T01:06:08.828Z,5.55
2019-01-03T01:09:12.134Z,5.35
2019-01-03T01:12:11.657Z,5.67
2019-01-03T01:15:04.028Z,5.70
2019-01-03T01:18:03.714Z,5.67
2019-01-03T01:21:03.472Z,5.30
2019-01-03T01:24:02.941Z,4.87
2019-01-03T01:27:02.867Z,5.72
2019-01-03T01:30:02.285Z,5.30
2019-01-03T01:33:02.608Z,5.90
2019-01-03T01:36:02.549Z,5.67
2019-01-03T01:39:08.095Z,5.72
2019-01-03T01:42:07.484Z,5.47
2019-01-03T01:45:13.136Z,5.22
2019-01-03T01:48:15.962Z,5.17
2019-01-03T01:51:16.245Z,5.35
2019-01-03T01:54:12.069Z,5.17
2019-01-03T01:57:11.999Z,5.60
2019-01-03T02:00:11.890Z,5.10
2019-01-03T02:03:12.098Z,5.30
2019-01-03T02:06:11.688Z,5.90
2019-01-03T02:09:11.101Z,5.90
2019-01-03T02:12:17.761Z,5.53
2019-01-03T02:15:17.514Z,5.47
2019-01-03T02:18:23.175Z,5.45
2019-01-03T02:21:11.003Z,5.30
2019-01-03T02:23:50.426Z,5.28
2019-01-03T02:26:57.509Z,5.60
2019-01-03T02:30:01.462Z,5.60
2019-01-03T02:33:08.552Z,5.17
2019-01-03T02:36:15.741Z,5.22
2019-01-03T02:39:23.555Z,5.17
2019-01-03T02:42:30.628Z,5.42
2019-01-03T02:45:30.438Z,5.60
2019-01-03T02:48:30.130Z,5.80
2019-01-03T02:51:29.837Z,5.53
2019-01-03T02:54:33.431Z,5.07
2019-01-03T02:57:15.054Z,5.20
2019-01-03T03:00:22.138Z,5.60
2019-01-03T03:03:29.336Z,5.55
2019-01-03T03:06:36.433Z,5.40
2019-01-03T03:09:43.599Z,5.50
2019-01-03T03:12:51.157Z,5.37
2019-01-03T03:15:58.250Z,5.00
2019-01-03T03:19:05.379Z,5.20
2019-01-03T03:22:12.417Z,5.33
2019-01-03T03:25:19.491Z,5.15
2019-01-03T03:28:26.790Z,4.90
2019-01-03T03:31:34.127Z,5.47
2019-01-03T03:34:37.000Z,5.03
2019-01-03T03:37:37.461Z,5.25
2019-01-03T03:40:44.846Z,5.20
2019-01-03T03:43:51.976Z,4.78
2019-01-03T03:46:59.506Z,4.90
2019-01-03T03:50:06.574Z,4.72
2019-01-03T03:53:06.845Z,4.30
2019-01-03T03:55:58.785Z,4.30
2019-01-03T03:58:58.291Z,4.62
2019-01-03T04:02:00.668Z,5.05
2019-01-03T04:05:00.561Z,4.90
2019-01-03T04:08:00.023Z,4.87
2019-01-03T04:10:59.676Z,4.55
2019-01-03T04:13:59.122Z,4.72
2019-01-03T04:17:02.301Z,4.75
2019-01-03T04:20:02.862Z,4.83
2019-01-03T04:23:03.220Z,4.95
2019-01-03T04:26:08.466Z,4.70
2019-01-03T04:29:08.517Z,5.60
2019-01-03T04:32:08.785Z,4.37
2019-01-03T04:34:57.018Z,5.30
2019-01-03T04:37:57.036Z,4.70
2019-01-03T04:40:56.436Z,5.20
2019-01-03T04:43:57.972Z,5.35
2019-01-03T04:46:57.743Z,5.15
2019-01-03T04:49:57.605Z,5.17
2019-01-03T04:52:54.652Z,5.10
2019-01-03T04:55:54.453Z,5.65
2019-01-03T04:58:53.885Z,5.17
2019-01-03T05:02:00.077Z,5.25
2019-01-03T05:04:59.764Z,5.47
2019-01-03T05:08:00.036Z,5.47
2019-01-03T05:10:53.428Z,5.35
2019-01-03T05:13:53.374Z,5.35
2019-01-03T05:16:56.462Z,4.90
2019-01-03T05:19:56.921Z,5.20
2019-01-03T05:22:56.535Z,5.42
2019-01-03T05:25:51.316Z,5.78
2019-01-03T05:28:47.850Z,5.87
2019-01-03T05:31:48.096Z,6.22
2019-01-03T05:34:48.016Z,5.95
2019-01-03T05:37:43.941Z,5.87
2019-01-03T05:40:44.288Z,5.28
2019-01-03T05:43:47.461Z,7.20
2019-01-03T05:46:47.605Z,7.80
2019-01-03T05:49:49.950Z,7.78
2019-01-03T05:52:50.215Z,7.60
2019-01-03T05:55:49.962Z,7.28
2019-01-03T05:58:49.827Z,6.28
2019-01-03T06:01:49.286Z,6.45
2019-01-03T06:04:49.001Z,5.80
2019-01-03T06:07:54.937Z,6.25
2019-01-03T06:10:55.407Z,6.40
2019-01-03T06:13:55.752Z,6.97
2019-01-03T06:16:48.479Z,7.10
2019-01-03T06:19:49.001Z,6.47
2019-01-03T06:22:49.342Z,6.20
2019-01-03T06:25:49.073Z,5.90
2019-01-03T06:28:48.854Z,6.05
2019-01-03T06:31:48.504Z,6.05
2019-01-03T06:34:48.180Z,5.70
2019-01-03T06:37:47.985Z,5.95
2019-01-03T06:40:47.639Z,5.95
2019-01-03T06:43:42.136Z,5.87
2019-01-03T06:46:42.261Z,6.03
2019-01-03T06:49:42.428Z,6.40
2019-01-03T06:52:42.047Z,6.00
2019-01-03T06:55:41.965Z,6.70
2019-01-03T06:58:41.407Z,6.20
2019-01-03T07:01:41.043Z,6.30
2019-01-03T07:04:41.423Z,6.15
2019-01-03T07:07:37.835Z,6.90
2019-01-03T07:10:37.912Z,7.00
2019-01-03T07:13:40.416Z,6.90
2019-01-03T07:16:40.624Z,6.70
2019-01-03T07:19:43.873Z,7.08
2019-01-03T07:22:43.337Z,7.58
2019-01-03T07:25:43.599Z,7.40
2019-01-03T07:28:38.320Z,7.60
2019-01-03T07:31:36.951Z,7.75
2019-01-03T07:34:37.218Z,8.88
2019-01-03T07:37:34.929Z,9.45
2019-01-03T07:40:35.420Z,8.98
2019-01-03T07:43:35.501Z,9.10
2019-01-03T07:46:31.390Z,8.73
2019-01-03T07:49:31.421Z,9.08
2019-01-03T07:52:31.863Z,8.77
2019-01-03T07:55:35.368Z,8.98
2019-01-03T07:58:29.854Z,8.20
2019-01-03T08:01:30.595Z,8.70
2019-01-03T08:04:30.420Z,8.77
2019-01-03T08:07:30.846Z,8.60
2019-01-03T08:10:30.639Z,9.50
2019-01-03T08:13:37.456Z,9.03
2019-01-03T08:16:37.657Z,8.95
2019-01-03T08:19:37.545Z,9.43
2019-01-03T08:22:36.072Z,8.73
2019-01-03T08:25:36.283Z,8.83
2019-01-03T08:28:36.050Z,8.50
2019-01-03T08:31:39.462Z,8.73
2019-01-03T08:34:42.178Z,9.35
2019-01-03T08:37:39.213Z,9.20
2019-01-03T08:40:39.068Z,11.25
2019-01-03T08:43:39.249Z,12.23
2019-01-03T08:46:39.189Z,11.17
2019-01-03T08:49:37.826Z,12.45
2019-01-03T08:52:37.147Z,15.55
2019-01-03T08:55:34.575Z,17.10
2019-01-03T09:01:33.291Z,14.03
2019-01-03T09:04:33.423Z,13.80
2019-01-03T09:07:33.747Z,13.85
2019-01-03T09:10:34.226Z,13.78
2019-01-03T09:13:39.787Z,13.25
2019-01-03T09:16:39.414Z,14.03
2019-01-03T09:19:37.936Z,12.68
2019-01-03T09:22:37.657Z,15.33
2019-01-03T09:25:38.901Z,15.47
2019-01-03T09:28:31.545Z,14.35
2019-01-03T09:31:32.450Z,14.10
2019-01-03T09:34:31.902Z,14.15
2019-01-03T09:37:29.339Z,13.83
2019-01-03T09:40:29.119Z,13.10
2019-01-03T09:43:23.248Z,13.45
2019-01-03T09:46:03.600Z,12.65
2019-01-03T09:48:44.420Z,12.65
2019-01-03T09:51:25.512Z,12.78
2019-01-03T09:54:06.395Z,12.90
2019-01-03T09:56:47.532Z,13.38
2019-01-03T09:59:28.464Z,13.40
2019-01-03T10:02:08.908Z,13.25
2019-01-03T10:04:49.513Z,13.05
2019-01-03T10:07:30.328Z,13.43
2019-01-03T10:10:11.646Z,13.55
2019-01-03T10:12:52.427Z,13.63
2019-01-03T10:15:33.518Z,13.00
2019-01-03T10:18:14.392Z,13.85
2019-01-03T10:20:54.761Z,13.98
2019-01-03T10:23:36.001Z,13.85
2019-01-03T10:26:17.185Z,15.55
2019-01-03T10:28:57.636Z,15.43
2019-01-03T10:31:38.808Z,25.97
2019-01-03T10:34:20.121Z,26.57
2019-01-03T10:37:00.960Z,25.52
2019-01-03T10:39:41.501Z,21.12
2019-01-03T10:42:22.273Z,20.00
2019-01-03T10:45:03.438Z,19.40
2019-01-03T10:47:44.068Z,16.07
2019-01-03T10:50:24.601Z,15.83
2019-01-03T10:53:05.404Z,15.15
2019-01-03T10:55:46.395Z,15.75
2019-01-03T10:58:27.626Z,15.63
2019-01-03T11:01:07.974Z,15.15
2019-01-03T11:03:48.573Z,15.53
2019-01-03T11:06:29.348Z,15.88
2019-01-03T11:09:13.251Z,15.27
2019-01-03T11:11:53.729Z,15.20
2019-01-03T11:14:34.499Z,14.98
2019-01-03T11:17:15.090Z,15.88
2019-01-03T11:19:55.762Z,16.00
2019-01-03T11:22:36.700Z,16.17
2019-01-03T11:25:17.346Z,16.23
2019-01-03T11:27:58.292Z,15.68
2019-01-03T11:30:39.264Z,15.38
2019-01-03T11:33:19.838Z,15.08
2019-01-03T11:36:00.869Z,15.58
2019-01-03T11:38:41.306Z,15.23
2019-01-03T11:41:22.012Z,15.13
2019-01-03T11:44:02.819Z,15.37
2019-01-03T11:46:43.660Z,15.97
2019-01-03T11:49:24.793Z,15.60
2019-01-03T11:52:05.889Z,16.32
2019-01-03T11:54:46.620Z,15.60
2019-01-03T11:57:27.937Z,16.30
2019-01-03T12:00:08.392Z,16.52
2019-01-03T12:02:49.400Z,16.55
2019-01-03T12:05:30.770Z,15.08
2019-01-03T12:08:11.661Z,15.63
2019-01-03T12:10:52.637Z,14.68
2019-01-03T12:13:33.285Z,15.68
2019-01-03T12:16:14.079Z,16.53
2019-01-03T12:18:55.089Z,16.43
2019-01-03T12:21:35.804Z,16.10
2019-01-03T12:24:16.177Z,16.13
2019-01-03T12:26:57.258Z,16.12
2019-01-03T12:29:37.856Z,17.25
2019-01-03T12:32:18.480Z,17.20
2019-01-03T12:34:59.109Z,18.07
2019-01-03T12:37:40.029Z,18.40
2019-01-03T12:40:20.583Z,18.48
2019-01-03T12:43:01.517Z,21.43
2019-01-03T12:45:41.943Z,22.23
2019-01-03T12:48:22.610Z,19.77
2019-01-03T12:51:03.348Z,18.98
2019-01-03T12:53:43.990Z,20.08
2019-01-03T12:56:24.917Z,20.30
2019-01-03T12:59:05.370Z,20.57
2019-01-03T13:01:45.713Z,20.37
2019-01-03T13:04:26.380Z,21.65
2019-01-03T13:07:06.987Z,18.87
2019-01-03T13:09:48.557Z,20.12
2019-01-03T13:12:30.188Z,20.70
2019-01-03T13:15:10.555Z,21.57
2019-01-03T13:17:51.274Z,21.87
2019-01-03T13:20:31.779Z,21.05
2019-01-03T13:23:12.443Z,20.55
2019-01-03T13:25:53.401Z,22.22
2019-01-03T13:28:34.275Z,22.25
2019-01-03T13:31:15.016Z,21.12
2019-01-03T13:33:55.549Z,21.35
2019-01-03T13:36:36.296Z,22.15
2019-01-03T13:39:17.577Z,23.20
2019-01-03T13:41:58.882Z,20.52
2019-01-03T13:44:39.566Z,21.97
2019-01-03T13:47:20.446Z,22.00
2019-01-03T13:50:01.087Z,23.35
2019-01-03T13:52:41.760Z,23.92
2019-01-03T13:55:22.557Z,24.53
2019-01-03T13:58:03.364Z,23.38
2019-01-03T14:00:44.153Z,23.42
2019-01-03T14:03:24.916Z,23.73
2019-01-03T14:06:06.040Z,23.40
2019-01-03T14:08:46.573Z,22.60
2019-01-03T14:11:27.905Z,21.77
2019-01-03T14:14:09.290Z,22.70
2019-01-03T14:16:49.995Z,23.15
2019-01-03T14:19:30.505Z,22.15
2019-01-03T14:22:11.390Z,21.93
2019-01-03T14:24:52.268Z,22.27
2019-01-03T14:27:33.192Z,19.15
2019-01-03T14:30:14.354Z,19.70
2019-01-03T14:32:55.248Z,17.42
2019-01-03T14:35:36.168Z,18.27
2019-01-03T14:38:17.751Z,16.62
2019-01-03T14:40:58.709Z,16.37
2019-01-03T14:43:39.318Z,15.13
2019-01-03T14:46:20.152Z,14.60
2019-01-03T14:49:00.833Z,15.00
2019-01-03T14:51:41.660Z,15.90
2019-01-03T14:54:22.719Z,15.30
2019-01-03T14:57:03.453Z,19.02
2019-01-03T14:59:44.420Z,19.57
2019-01-03T15:02:25.484Z,18.73
2019-01-03T15:05:06.401Z,18.60
2019-01-03T15:07:47.423Z,19.30
2019-01-03T15:10:28.402Z,16.07
2019-01-03T15:13:09.119Z,17.57
2019-01-03T15:15:50.237Z,16.37
2019-01-03T15:18:29.545Z,17.40
2019-01-03T15:21:17.625Z,17.05
2019-01-03T15:24:05.969Z,16.30
2019-01-03T15:26:53.915Z,16.30
2019-01-03T15:29:41.960Z,15.50
2019-01-03T15:32:29.979Z,14.68
2019-01-03T15:35:17.935Z,13.53
2019-01-03T15:38:05.939Z,12.97
2019-01-03T15:40:53.899Z,13.40
2019-01-03T15:43:42.213Z,12.98
2019-01-03T15:46:30.167Z,13.80
2019-01-03T15:49:18.611Z,13.30
2019-01-03T15:52:06.828Z,13.58
2019-01-03T15:54:55.098Z,15.23
2019-01-03T15:57:43.056Z,14.73
2019-01-03T16:00:31.843Z,15.40
2019-01-03T16:03:12.908Z,16.07
2019-01-03T16:05:53.973Z,16.73
2019-01-03T16:08:35.103Z,16.52
2019-01-03T16:11:04.050Z,16.05
2019-01-03T16:13:52.004Z,16.50
2019-01-03T16:16:40.026Z,21.50
2019-01-03T16:19:28.232Z,22.22
2019-01-03T16:22:16.178Z,23.57
2019-01-03T16:25:04.400Z,25.85
2019-01-03T16:27:52.376Z,26.33
2019-01-03T16:30:40.414Z,26.65
2019-01-03T16:33:28.376Z,24.95
2019-01-03T16:36:16.453Z,24.83
2019-01-03T16:39:05.361Z,23.75
2019-01-03T16:41:53.427Z,25.35
2019-01-03T16:44:41.441Z,24.37
2019-01-03T16:47:29.449Z,25.43
2019-01-03T16:50:17.700Z,26.25
2019-01-03T16:53:05.908Z,27.10
2019-01-03T16:55:54.180Z,29.92
2019-01-03T16:58:42.120Z,30.47
2019-01-03T17:01:30.578Z,29.30
2019-01-03T17:04:18.566Z,25.62
2019-01-03T17:07:06.578Z,24.72
2019-01-03T17:09:54.548Z,24.07
2019-01-03T17:12:42.492Z,25.43
2019-01-03T17:15:30.518Z,25.60
2019-01-03T17:18:18.529Z,24.23
2019-01-03T17:21:06.576Z,29.92
2019-01-03T17:23:54.540Z,28.00
2019-01-03T17:26:42.624Z,28.50
2019-01-03T17:29:30.613Z,27.25
2019-01-03T17:32:18.658Z,27.45
2019-01-03T17:35:07.136Z,25.90
2019-01-03T17:37:55.092Z,27.30
2019-01-03T17:40:43.127Z,27.95
2019-01-03T17:43:31.077Z,28.42
2019-01-03T17:46:19.180Z,28.55
2019-01-03T17:49:07.132Z,28.15
2019-01-03T17:51:55.443Z,28.17
2019-01-03T17:54:43.399Z,29.45
2019-01-03T17:57:31.433Z,29.40
2019-01-03T18:03:22.404Z,28.95
2019-01-03T18:06:03.118Z,29.00
2019-01-03T18:08:44.165Z,28.65
2019-01-03T18:11:24.863Z,31.42
2019-01-03T18:14:05.457Z,32.25
2019-01-03T18:16:46.591Z,31.05
2019-01-03T18:19:27.316Z,29.75
2019-01-03T18:22:08.097Z,29.90
2019-01-03T18:24:49.200Z,31.45
2019-01-03T18:27:30.246Z,31.12
2019-01-03T18:30:10.821Z,32.40
2019-01-03T18:32:51.636Z,34.48
2019-01-03T18:35:32.279Z,35.17
2019-01-03T18:38:13.418Z,35.33
2019-01-03T18:40:54.329Z,33.83
2019-01-03T18:43:36.013Z,33.83
2019-01-03T18:46:17.237Z,35.03
2019-01-03T18:48:57.723Z,34.25
2019-01-03T18:51:39.072Z,34.48
2019-01-03T18:54:20.265Z,34.07
2019-01-03T18:57:00.790Z,33.63
2019-01-03T18:59:41.395Z,34.57
2019-01-03T19:02:22.244Z,34.38
2019-01-03T19:05:02.798Z,34.88
2019-01-03T19:07:43.732Z,34.18
2019-01-03T19:10:28.213Z,33.73
2019-01-03T19:13:08.034Z,33.95
2019-01-03T19:15:48.877Z,35.13
2019-01-03T19:18:29.449Z,33.45
2019-01-03T19:21:10.329Z,34.03
2019-01-03T19:23:55.329Z,34.60
2019-01-03T19:26:34.356Z,33.33
2019-01-03T19:29:15.055Z,33.55
2019-01-03T19:31:55.673Z,32.95
2019-01-03T19:34:24.532Z,32.40
2019-01-03T19:37:12.760Z,32.03
2019-01-03T19:40:00.740Z,32.30
2019-01-03T19:42:48.692Z,31.80
2019-01-03T19:45:36.663Z,31.42
2019-01-03T19:48:24.955Z,32.73
2019-01-03T19:51:12.948Z,31.75
2019-01-03T19:54:01.160Z,31.85
2019-01-03T19:56:49.325Z,31.45
2019-01-03T19:59:37.314Z,32.25
2019-01-03T20:02:18.386Z,30.62
2019-01-03T20:04:59.336Z,29.60
2019-01-03T20:07:40.464Z,31.57
2019-01-03T20:10:21.307Z,28.75
2019-01-03T20:13:02.191Z,27.07
2019-01-03T20:15:43.497Z,25.72
2019-01-03T20:18:24.872Z,24.15
2019-01-03T20:21:05.453Z,22.20
2019-01-03T20:23:46.264Z,21.73
2019-01-03T20:26:15.419Z,23.07
2019-01-03T20:29:03.562Z,22.93
2019-01-03T20:31:51.534Z,22.98
2019-01-03T20:34:39.587Z,22.22
2019-01-03T20:37:27.542Z,22.43
2019-01-03T20:40:34.782Z,23.05
2019-01-03T20:43:22.787Z,22.95
2019-01-03T20:46:10.824Z,22.45
2019-01-03T20:48:58.829Z,23.73
2019-01-03T20:54:54.252Z,24.60
2019-01-03T20:57:42.321Z,24.67
2019-01-03T21:00:30.329Z,24.45
2019-01-03T21:03:11.456Z,22.60
2019-01-03T21:05:53.281Z,23.07
2019-01-03T21:08:34.137Z,25.37
2019-01-03T21:11:14.538Z,25.30
2019-01-03T21:13:55.565Z,26.77
2019-01-03T21:16:36.417Z,26.53
2019-01-03T21:19:20.876Z,26.03
2019-01-03T21:22:01.962Z,26.52
2019-01-03T21:24:42.363Z,27.52
2019-01-03T21:27:22.988Z,27.07
2019-01-03T21:30:04.062Z,26.85
2019-01-03T21:32:44.761Z,26.85
2019-01-03T21:35:25.491Z,25.17
2019-01-03T21:38:06.799Z,27.48
2019-01-03T21:40:48.060Z,27.42
2019-01-03T21:43:28.620Z,28.87
2019-01-03T21:46:09.455Z,28.27
2019-01-03T21:48:53.149Z,28.12
2019-01-03T21:51:33.451Z,28.03
2019-01-03T21:54:14.240Z,29.25
2019-01-03T21:56:55.028Z,28.62
2019-01-03T21:59:36.176Z,29.02
2019-01-03T22:02:16.894Z,29.50
2019-01-03T22:04:57.637Z,28.70
2019-01-03T22:07:38.525Z,28.80
2019-01-03T22:10:19.703Z,29.18
2019-01-03T22:13:00.654Z,29.05
2019-01-03T22:15:41.429Z,28.20
2019-01-03T22:18:21.856Z,28.92
2019-01-03T22:21:02.555Z,28.60
2019-01-03T22:23:43.313Z,27.22
2019-01-03T22:26:23.966Z,27.70
2019-01-03T22:29:04.656Z,27.85
2019-01-03T22:31:45.616Z,27.30
2019-01-03T22:34:26.464Z,28.65
2019-01-03T22:37:07.013Z,28.47
2019-01-03T22:39:47.970Z,29.45
2019-01-03T22:42:28.839Z,29.40
2019-01-03T22:45:10.497Z,31.90
2019-01-03T22:47:51.572Z,31.50
2019-01-03T22:50:32.261Z,28.05
2019-01-03T22:53:13.413Z,28.95
2019-01-03T22:55:54.122Z,31.70
2019-01-03T22:58:35.112Z,31.97
2019-01-03T23:01:16.402Z,30.97
2019-01-03T23:03:57.139Z,30.77
2019-01-03T23:06:37.953Z,31.93
2019-01-03T23:09:19.468Z,29.12
2019-01-03T23:12:00.258Z,28.73
2019-01-03T23:14:41.066Z,29.00
2019-01-03T23:17:22.323Z,28.60
2019-01-03T23:20:03.051Z,28.92
2019-01-03T23:22:44.221Z,30.15
2019-01-03T23:25:24.987Z,30.12
2019-01-03T23:28:05.878Z,30.27
2019-01-03T23:30:46.363Z,30.08
2019-01-03T23:33:27.416Z,29.67
2019-01-03T23:36:08.093Z,29.15
2019-01-03T23:38:48.853Z,28.42
2019-01-03T23:41:29.615Z,29.00
2019-01-03T23:44:10.140Z,31.20
2019-01-03T23:46:51.052Z,30.77
2019-01-03T23:49:31.751Z,29.98
2019-01-03T23:52:12.306Z,30.08
2019-01-03T23:54:53.037Z,32.00
2019-01-03T23:57:33.926Z,30.93
